createdAt,value
2018-02-18T08:18:25.997Z,1026.8853042597116
2018-02-18T08:18:28.357Z,1026.8152010396695
2018-02-18T08:18:30.814Z,1026.8702167905628
2018-02-18T08:59:58.746Z,1026.915107879367
2018-02-18T09:00:01.198Z,1026.8125879871457
2018-02-18T09:00:03.598Z,1026.810475897081
2018-02-18T09:56:15.340Z,1026.8035460360231
2018-02-18T09:56:17.490Z,1026.8073810359558
2018-02-18T09:56:19.493Z,1026.8272289341292
2018-02-18T10:14:07.277Z,1026.8486903393523
2018-02-18T10:15:08.866Z,1026.8537984076015
2018-02-18T10:16:10.442Z,1026.7974220124631
2018-02-18T10:17:11.988Z,1026.8195176056558
2018-02-18T10:18:13.573Z,1026.8161208242936
2018-02-18T10:19:15.648Z,1026.8101095097263
2018-02-18T10:20:17.680Z,1026.8704090492638
2018-02-18T10:26:26.575Z,1026.81
2018-02-18T10:27:28.420Z,1026.81
2018-02-18T10:28:44.043Z,1026.78
2018-02-18T10:29:45.692Z,1026.79
2018-02-18T10:30:47.256Z,1026.80
2018-02-18T10:31:48.886Z,1026.80
2018-02-18T10:33:26.307Z,1026.87
2018-02-18T10:34:48.173Z,1026.81
2018-02-18T10:35:50.949Z,1026.82
2018-02-18T10:36:53.412Z,1026.80
2018-02-18T10:37:55.821Z,1026.82
2018-02-18T10:38:58.176Z,1026.80
2018-02-18T10:40:30.906Z,1026.83
2018-02-18T10:41:34.328Z,1026.80
2018-02-18T10:42:37.697Z,1026.90
2018-02-18T10:43:41.244Z,1026.91
2018-02-18T10:44:44.751Z,1026.87
2018-02-18T10:45:48.274Z,1026.85
2018-02-18T10:46:51.846Z,1026.84
2018-02-18T10:47:55.491Z,1026.82
2018-02-18T10:48:59.160Z,1026.85
2018-02-18T10:50:02.621Z,1026.85
2018-02-18T10:51:06.058Z,1026.90
2018-02-18T10:52:09.507Z,1026.81
2018-02-18T10:53:12.945Z,1026.79
2018-02-18T10:54:17.075Z,1026.83
2018-02-18T10:55:21.161Z,1026.84
2018-02-18T10:56:24.569Z,1026.82
2018-02-18T10:57:27.963Z,1026.82
2018-02-18T10:58:31.443Z,1026.80
2018-02-18T11:10:26.729Z,1026.67
2018-02-18T11:11:29.818Z,1026.64
2018-02-18T11:12:33.152Z,1026.61
2018-02-18T11:13:36.332Z,1026.58
2018-02-18T11:14:39.474Z,1026.57
2018-02-18T11:15:42.728Z,1026.61
2018-02-18T11:16:45.932Z,1026.56
2018-02-18T11:17:54.511Z,1026.58
2018-02-18T11:18:57.578Z,1026.54
2018-02-18T11:20:00.712Z,1026.55
2018-02-18T11:21:04.076Z,1026.53
2018-02-18T11:22:07.099Z,1026.55
2018-02-18T11:23:10.155Z,1026.52
2018-02-18T11:24:13.193Z,1026.45
2018-02-18T11:25:16.209Z,1026.48
2018-02-18T11:26:19.950Z,1026.41
2018-02-18T11:27:22.977Z,1026.39
2018-02-18T11:28:26.019Z,1026.40
2018-02-18T11:29:29.076Z,1026.37
2018-02-18T11:30:32.152Z,1026.34
2018-02-18T11:31:35.197Z,1026.37
2018-02-18T11:32:38.282Z,1026.31
2018-02-18T11:33:41.305Z,1026.34
2018-02-18T11:34:44.318Z,1026.34
2018-02-18T11:35:47.346Z,1026.21
2018-02-18T11:36:50.392Z,1026.26
2018-02-18T11:37:53.519Z,1026.16
2018-02-18T11:38:56.544Z,1026.25
2018-02-18T11:39:59.695Z,1026.18
2018-02-18T11:41:02.766Z,1026.20
2018-02-18T11:42:06.118Z,1026.15
2018-02-18T11:43:09.913Z,1026.20
2018-02-18T11:44:12.929Z,1026.12
2018-02-18T11:45:15.947Z,1026.15
2018-02-18T11:46:18.961Z,1026.11
2018-02-18T11:47:22.013Z,1026.09
2018-02-18T11:48:25.039Z,1026.06
2018-02-18T11:49:28.047Z,1026.05
2018-02-18T11:50:31.097Z,1026.02
2018-02-18T11:51:34.108Z,1026.05
2018-02-18T11:52:37.172Z,1026.04
2018-02-18T11:53:40.245Z,1026.06
2018-02-18T11:54:43.276Z,1026.02
2018-02-18T11:55:46.326Z,1025.96
2018-02-18T11:56:49.486Z,1025.93
2018-02-18T11:57:52.603Z,1025.91
2018-02-18T11:58:55.615Z,1025.97
2018-02-18T11:59:58.641Z,1025.99
2018-02-18T12:01:01.793Z,1025.96
2018-02-18T12:02:05.379Z,1025.93
2018-02-18T12:03:08.425Z,1025.87
2018-02-18T12:04:11.440Z,1025.91
2018-02-18T12:05:14.450Z,1025.86
2018-02-18T12:06:17.483Z,1025.83
2018-02-18T12:07:20.508Z,1025.82
2018-02-18T12:08:23.576Z,1025.87
2018-02-18T12:09:26.619Z,1025.80
2018-02-18T12:10:30.664Z,1025.96
2018-02-18T12:11:33.748Z,1025.79
2018-02-18T12:12:36.945Z,1025.84
2018-02-18T12:13:39.983Z,1025.81
2018-02-18T12:14:42.997Z,1025.85
2018-02-18T12:15:46.075Z,1025.82
2018-02-18T12:16:49.101Z,1025.87
2018-02-18T12:17:52.207Z,1025.77
2018-02-18T12:18:55.369Z,1025.76
2018-02-18T12:19:58.430Z,1025.72
2018-02-18T12:21:01.539Z,1025.67
2018-02-18T12:22:05.173Z,1025.69
2018-02-18T12:23:08.317Z,1025.73
2018-02-18T12:24:11.380Z,1025.74
2018-02-18T12:25:14.589Z,1025.72
2018-02-18T12:26:17.607Z,1025.71
2018-02-18T12:27:20.622Z,1025.68
2018-02-18T12:28:23.611Z,1025.63
2018-02-18T12:29:26.669Z,1025.67
2018-02-18T12:30:29.676Z,1025.70
2018-02-18T12:31:32.812Z,1025.69
2018-02-18T12:32:35.825Z,1025.59
2018-02-18T12:33:38.830Z,1025.59
2018-02-18T12:34:41.912Z,1025.58
2018-02-18T12:35:44.925Z,1025.55
2018-02-18T12:36:47.944Z,1025.52
2018-02-18T12:37:50.983Z,1025.59
2018-02-18T12:38:54.037Z,1025.59
2018-02-18T12:39:57.089Z,1025.55
2018-02-18T12:41:00.085Z,1025.55
2018-02-18T12:42:03.250Z,1025.65
2018-02-18T12:43:06.585Z,1025.64
2018-02-18T12:44:09.618Z,1025.58
2018-02-18T12:45:12.673Z,1025.59
2018-02-18T12:46:15.678Z,1025.61
2018-02-18T12:47:18.807Z,1025.57
2018-02-18T12:48:22.174Z,1025.55
2018-02-18T12:49:25.182Z,1025.59
2018-02-18T12:50:28.215Z,1025.54
2018-02-18T12:51:31.225Z,1025.58
2018-02-18T12:52:34.216Z,1025.57
2018-02-18T12:53:37.262Z,1025.55
2018-02-18T12:54:40.322Z,1025.59
2018-02-18T12:55:43.606Z,1025.54
2018-02-18T12:56:46.634Z,1025.55
2018-02-18T12:57:49.723Z,1025.54
2018-02-18T12:58:52.728Z,1025.50
2018-02-18T12:59:55.745Z,1025.50
2018-02-18T13:00:58.773Z,1025.52
2018-02-18T13:02:01.817Z,1025.46
2018-02-18T13:03:05.146Z,1025.44
2018-02-18T13:04:08.167Z,1025.56
2018-02-18T13:05:11.182Z,1025.47
2018-02-18T13:06:14.256Z,1025.38
2018-02-18T13:07:17.318Z,1025.40
2018-02-18T13:08:20.367Z,1025.33
2018-02-18T13:09:23.406Z,1025.39
2018-02-18T13:10:26.422Z,1025.34
2018-02-18T13:11:29.841Z,1025.40
2018-02-18T13:12:32.869Z,1025.38
2018-02-18T13:13:35.898Z,1025.35
2018-02-18T13:14:38.924Z,1025.35
2018-02-18T13:15:41.937Z,1025.33
2018-02-18T13:16:44.995Z,1025.31
2018-02-18T13:17:48.878Z,1025.32
2018-02-18T13:18:52.005Z,1025.28
2018-02-18T13:19:55.109Z,1025.24
2018-02-18T13:20:58.204Z,1025.32
2018-02-18T13:22:01.581Z,1025.31
2018-02-18T13:23:05.017Z,1025.27
2018-02-18T13:24:08.066Z,1025.27
2018-02-18T13:25:11.159Z,1025.25
2018-02-18T13:26:14.980Z,1025.22
2018-02-18T13:27:19.912Z,1025.26
2018-02-18T13:28:22.967Z,1025.30
2018-02-18T13:29:26.674Z,1025.31
2018-02-18T13:30:29.703Z,1025.26
2018-02-18T13:31:32.710Z,1025.25
2018-02-18T13:32:35.910Z,1025.19
2018-02-18T13:33:40.120Z,1025.15
2018-02-18T13:34:44.463Z,1025.15
2018-02-18T13:35:47.685Z,1025.20
2018-02-18T13:36:51.142Z,1025.13
2018-02-18T13:37:54.727Z,1025.16
2018-02-18T13:38:58.358Z,1025.03
2018-02-18T13:40:01.602Z,1025.04
2018-02-18T13:41:05.806Z,1025.06
2018-02-18T13:42:08.832Z,1024.98
2018-02-18T13:43:12.023Z,1025.02
2018-02-18T13:44:15.993Z,1025.03
2018-02-18T13:45:19.835Z,1024.99
2018-02-18T13:46:23.849Z,1025.01
2018-02-18T13:47:26.892Z,1025.01
2018-02-18T13:48:29.917Z,1025.02
2018-02-18T13:49:32.963Z,1025.01
2018-02-18T13:50:36.564Z,1025.07
2018-02-18T13:51:39.582Z,1025.08
2018-02-18T13:52:43.583Z,1025.02
2018-02-18T13:53:49.523Z,1025.00
2018-02-18T13:54:52.792Z,1025.02
2018-02-18T13:55:57.889Z,1024.96
2018-02-18T13:57:00.893Z,1025.01
2018-02-18T13:58:07.187Z,1024.95
2018-02-18T13:59:10.237Z,1024.95
2018-02-18T14:00:13.550Z,1024.94
2018-02-18T14:01:17.275Z,1024.97
2018-02-18T14:02:20.284Z,1024.97
2018-02-18T14:03:23.864Z,1025.01
2018-02-18T14:04:28.062Z,1024.96
2018-02-18T14:05:31.206Z,1025.04
2018-02-18T14:06:35.085Z,1025.01
2018-02-18T14:07:38.244Z,1024.98
2018-02-18T14:08:41.910Z,1024.98
2018-02-18T14:09:45.116Z,1024.98
2018-02-18T14:10:49.908Z,1024.93
2018-02-18T14:11:53.290Z,1024.97
2018-02-18T14:12:56.300Z,1025.00
2018-02-18T14:14:00.019Z,1024.94
2018-02-18T14:15:03.822Z,1024.93
2018-02-18T14:16:08.098Z,1024.95
2018-02-18T14:17:13.038Z,1024.95
2018-02-18T14:18:16.672Z,1024.90
2018-02-18T14:19:19.715Z,1024.88
2018-02-18T14:20:22.757Z,1024.92
2018-02-18T14:21:26.195Z,1024.91
2018-02-18T14:22:30.112Z,1025.00
2018-02-18T14:23:33.235Z,1024.92
2018-02-18T14:24:36.401Z,1024.90
2018-02-18T14:25:39.446Z,1024.88
2018-02-18T14:26:42.881Z,1024.86
2018-02-18T14:27:48.633Z,1024.84
2018-02-18T14:28:56.878Z,1024.86
2018-02-18T14:30:00.126Z,1024.84
2018-02-18T14:31:05.456Z,1024.86
2018-02-18T14:32:08.533Z,1024.86
2018-02-18T14:33:11.577Z,1024.84
2018-02-18T14:34:15.150Z,1024.87
2018-02-18T14:35:18.185Z,1024.87
2018-02-18T14:36:21.243Z,1024.83
2018-02-18T14:37:24.770Z,1024.80
2018-02-18T14:38:27.864Z,1024.81
2018-02-18T14:39:30.876Z,1024.80
2018-02-18T14:40:35.429Z,1024.81
2018-02-18T14:41:38.604Z,1024.82
2018-02-18T14:42:41.677Z,1024.86
2018-02-18T14:43:44.733Z,1024.83
2018-02-18T14:44:47.793Z,1024.83
2018-02-18T14:45:51.249Z,1024.89
2018-02-18T14:46:56.439Z,1024.83
2018-02-18T14:47:59.463Z,1024.85
2018-02-18T14:49:02.680Z,1024.89
2018-02-18T14:50:07.333Z,1024.84
2018-02-18T14:51:10.339Z,1024.83
2018-02-18T14:52:15.601Z,1024.85
2018-02-18T14:53:18.790Z,1024.90
2018-02-18T14:54:21.808Z,1024.82
2018-02-18T14:55:24.929Z,1024.80
2018-02-18T14:56:28.031Z,1024.76
2018-02-18T14:57:31.158Z,1024.74
2018-02-18T14:58:34.871Z,1024.72
2018-02-18T14:59:38.003Z,1024.68
2018-02-18T15:00:41.100Z,1024.70
2018-02-18T15:01:44.363Z,1024.70
2018-02-18T15:02:48.421Z,1024.69
2018-02-18T15:03:53.744Z,1024.63
2018-02-18T15:04:56.899Z,1024.72
2018-02-18T15:05:59.910Z,1024.70
2018-02-18T15:07:03.287Z,1024.69
2018-02-18T15:08:06.945Z,1024.67
2018-02-18T15:09:10.018Z,1024.66
2018-02-18T15:10:13.593Z,1024.65
2018-02-18T15:11:18.638Z,1024.68
2018-02-18T15:12:23.658Z,1024.66
2018-02-18T15:13:27.878Z,1024.65
2018-02-18T15:14:32.832Z,1024.65
2018-02-18T15:15:36.921Z,1024.64
2018-02-18T15:16:39.951Z,1024.62
2018-02-18T15:17:42.991Z,1024.64
2018-02-18T15:18:46.924Z,1024.64
2018-02-18T15:19:50.628Z,1024.60
2018-02-18T15:20:54.647Z,1024.63
2018-02-18T15:21:58.080Z,1024.64
2018-02-18T15:23:01.218Z,1024.67
2018-02-18T15:24:05.360Z,1024.59
2018-02-18T15:25:08.354Z,1024.64
2018-02-18T15:26:11.379Z,1024.56
2018-02-18T15:27:15.911Z,1024.60
2018-02-18T15:28:18.963Z,1024.62
2018-02-18T15:29:21.991Z,1024.62
2018-02-18T15:30:25.043Z,1024.61
2018-02-18T15:31:28.119Z,1024.64
2018-02-18T15:32:31.165Z,1024.63
2018-02-18T15:33:35.014Z,1024.56
2018-02-18T15:34:38.052Z,1024.60
2018-02-18T15:35:41.071Z,1024.56
2018-02-18T15:36:44.299Z,1024.54
2018-02-18T15:37:47.448Z,1024.57
2018-02-18T15:38:50.526Z,1024.54
2018-02-18T15:39:54.211Z,1024.52
2018-02-18T15:40:57.579Z,1024.46
2018-02-18T15:42:00.770Z,1024.49
2018-02-18T15:43:04.187Z,1024.48
2018-02-18T15:44:07.390Z,1024.47
2018-02-18T15:45:10.501Z,1024.51
2018-02-18T15:46:13.628Z,1024.48
2018-02-18T15:47:16.663Z,1024.41
2018-02-18T15:48:19.703Z,1024.47
2018-02-18T15:49:22.818Z,1024.45
2018-02-18T15:50:26.351Z,1024.43
2018-02-18T15:51:29.413Z,1024.44
2018-02-18T15:52:32.521Z,1024.47
2018-02-18T15:53:35.880Z,1024.46
2018-02-18T15:54:38.954Z,1024.42
2018-02-18T15:55:42.011Z,1024.50
2018-02-18T15:56:45.817Z,1024.47
2018-02-18T15:57:49.830Z,1024.49
2018-02-18T15:58:54.198Z,1024.50
2018-02-18T15:59:57.289Z,1024.49
2018-02-18T16:01:00.322Z,1024.48
2018-02-18T16:02:04.453Z,1024.47
2018-02-18T16:03:07.910Z,1024.42
2018-02-18T16:04:10.925Z,1024.41
2018-02-18T16:05:14.138Z,1024.45
2018-02-18T16:06:17.340Z,1024.37
2018-02-18T16:07:20.354Z,1024.36
2018-02-18T16:08:23.466Z,1024.33
2018-02-18T16:09:26.502Z,1024.37
2018-02-18T16:10:30.203Z,1024.37
2018-02-18T16:11:33.561Z,1024.33
2018-02-18T16:12:37.374Z,1024.34
2018-02-18T16:13:40.395Z,1024.33
2018-02-18T16:14:43.494Z,1024.32
2018-02-18T16:15:46.942Z,1024.32
2018-02-18T16:16:50.033Z,1024.31
2018-02-18T16:17:53.185Z,1024.32
2018-02-18T16:18:56.203Z,1024.30
2018-02-18T16:19:59.233Z,1024.30
2018-02-18T16:21:02.605Z,1024.31
2018-02-18T16:22:07.004Z,1024.32
2018-02-18T16:23:10.020Z,1024.29
2018-02-18T16:24:13.069Z,1024.31
2018-02-18T16:25:16.087Z,1024.31
2018-02-18T16:26:19.540Z,1024.32
2018-02-18T16:27:22.717Z,1024.28
2018-02-18T16:28:26.250Z,1024.30
2018-02-18T16:29:29.276Z,1024.32
2018-02-18T16:30:32.279Z,1024.31
2018-02-18T16:31:35.299Z,1024.33
2018-02-18T16:32:38.400Z,1024.32
2018-02-18T16:33:41.422Z,1024.34
2018-02-18T16:34:45.133Z,1024.37
2018-02-18T16:35:48.157Z,1024.34
2018-02-18T16:36:51.270Z,1024.38
2018-02-18T16:37:55.080Z,1024.40
2018-02-18T16:38:58.108Z,1024.35
2018-02-18T16:40:01.341Z,1024.36
2018-02-18T16:41:04.709Z,1024.30
2018-02-18T16:42:07.778Z,1024.35
2018-02-18T16:43:13.320Z,1024.35
2018-02-18T16:44:16.721Z,1024.35
2018-02-18T16:45:19.788Z,1024.35
2018-02-18T16:46:23.016Z,1024.38
2018-02-18T16:47:27.233Z,1024.35
2018-02-18T16:48:30.325Z,1024.37
2018-02-18T16:49:33.788Z,1024.36
2018-02-18T16:50:37.417Z,1024.39
2018-02-18T16:51:40.450Z,1024.37
2018-02-18T16:52:44.549Z,1024.41
2018-02-18T16:53:48.568Z,1024.43
2018-02-18T16:54:51.656Z,1024.36
2018-02-18T16:55:56.113Z,1024.34
2018-02-18T16:56:59.137Z,1024.33
2018-02-18T16:58:02.415Z,1024.25
2018-02-18T16:59:07.378Z,1024.19
2018-02-18T23:33:27.829Z,1022.30
2018-02-18T23:35:54.727Z,1022.32
2018-02-18T23:48:27.837Z,1022.11
2018-02-18T23:50:47.980Z,1022.09
